Time;durP1;ratioP1;P1;durP2;ratioP2;P2;SDS_P1;SDS_P2;PMS_P1;PMS_P2;Temp;Humidity;BMP_temperature;BMP_pressure;BME280_temperature;BME280_humidity;BME280_pressure;Samples;Min_cycle;Max_cycle;Signal;HPM_P1;HPM_P2
2023/06/09 00:01:45;;;;;;;11.35;7.63;;;;;19.00;100828.00;;;;10142294;28;20218;-79
2023/06/09 00:06:47;;;;;;;11.82;8.18;;;;;19.00;100810.00;;;;10141747;28;20217;-78
2023/06/09 00:11:49;;;;;;;10.27;7.90;;;;;18.90;100820.00;;;;10140290;28;20220;-79
2023/06/09 00:16:52;;;;;;;11.43;7.93;;;;;18.80;100819.00;;;;10142430;28;20320;-78
2023/06/09 00:21:54;;;;;;;11.63;8.02;;;;;18.70;100819.00;;;;10137542;28;20674;-76
2023/06/09 00:26:56;;;;;;;12.73;8.23;;;;;18.60;100816.00;;;;10140816;28;20233;-77
2023/06/09 00:31:59;;;;;;;8.95;7.05;;;;;18.50;100816.00;;;;10140529;28;20275;-80
2023/06/09 00:37:01;;;;;;;14.15;7.88;;;;;18.50;100814.00;;;;10134968;28;20213;-76
2023/06/09 00:42:05;;;;;;;11.70;7.60;;;;;18.40;100814.00;;;;10139574;28;20213;-76
2023/06/09 00:47:07;;;;;;;12.45;7.35;;;;;18.30;100813.00;;;;10139193;28;20265;-75
2023/06/09 00:52:10;;;;;;;11.35;7.55;;;;;18.20;100826.00;;;;10137818;28;20439;-76
2023/06/09 00:57:13;;;;;;;17.08;8.43;;;;;18.10;100824.00;;;;10138010;28;20256;-76
2023/06/09 01:02:15;;;;;;;10.23;7.80;;;;;17.90;100823.00;;;;10590071;23;20228;-78
2023/06/09 01:07:54;;;;;;;11.55;7.97;;;;;17.90;100819.00;;;;10170473;28;20336;-77
2023/06/09 01:13:05;;;;;;;10.25;7.78;;;;;17.70;100826.00;;;;10194118;28;20308;-82
2023/06/09 01:18:12;;;;;;;14.20;8.50;;;;;17.60;100827.00;;;;10177502;28;20267;-76
2023/06/09 01:23:59;;;;;;;9.40;7.88;;;;;17.40;100824.00;;;;10168543;28;20721;-76
2023/06/09 01:29:03;;;;;;;15.88;9.57;;;;;17.20;100810.00;;;;10148944;28;20221;-78
2023/06/09 01:34:05;;;;;;;11.88;8.40;;;;;17.00;100814.00;;;;10168262;28;21262;-79
2023/06/09 01:39:08;;;;;;;14.70;8.65;;;;;17.00;100816.00;;;;10167728;28;20565;-77
2023/06/09 01:44:10;;;;;;;16.73;8.98;;;;;16.90;100808.00;;;;10169216;28;20213;-80
2023/06/09 01:49:24;;;;;;;13.40;8.27;;;;;16.80;100809.00;;;;10166635;28;20622;-77
2023/06/09 01:54:40;;;;;;;14.93;9.02;;;;;16.80;100808.00;;;;10170261;28;20251;-76
2023/06/09 01:59:51;;;;;;;12.35;8.95;;;;;16.70;100804.00;;;;10168063;28;20208;-77
2023/06/09 02:04:55;;;;;;;16.73;8.50;;;;;16.60;100806.00;;;;10167684;28;20219;-75
2023/06/09 02:09:57;;;;;;;11.35;8.00;;;;;16.60;100792.00;;;;10167340;28;21443;-80
2023/06/09 02:15:01;;;;;;;17.00;9.03;;;;;16.50;100800.00;;;;10175044;28;20244;-80
2023/06/09 02:20:05;;;;;;;14.73;8.93;;;;;16.40;100792.00;;;;10163598;28;20205;-78
2023/06/09 02:25:08;;;;;;;14.43;8.20;;;;;16.40;100796.00;;;;10150701;28;21226;-77
2023/06/09 02:30:10;;;;;;;16.55;7.93;;;;;16.30;100794.00;;;;10165431;28;20512;-77
2023/06/09 02:35:13;;;;;;;13.80;8.13;;;;;16.30;100788.00;;;;10165622;28;20252;-82
2023/06/09 02:40:15;;;;;;;12.47;7.77;;;;;16.30;100784.00;;;;10169020;28;20734;-78
2023/06/09 02:45:17;;;;;;;14.23;8.03;;;;;16.20;100778.00;;;;10169346;28;20296;-76
2023/06/09 02:50:19;;;;;;;15.07;8.97;;;;;16.00;100786.00;;;;10169105;28;20320;-76
2023/06/09 02:55:28;;;;;;;13.23;8.80;;;;;15.90;100789.00;;;;10165532;28;20846;-77
2023/06/09 03:00:31;;;;;;;12.93;8.23;;;;;15.90;100788.00;;;;10182723;28;20290;-79
2023/06/09 03:05:44;;;;;;;14.57;8.50;;;;;15.90;100787.00;;;;10165818;28;20240;-77
2023/06/09 03:10:48;;;;;;;14.63;7.90;;;;;15.80;100790.00;;;;10203571;28;20226;-78
2023/06/09 03:15:54;;;;;;;11.07;7.67;;;;;15.80;100798.00;;;;10189656;28;20220;-76
2023/06/09 03:21:04;;;;;;;12.93;9.03;;;;;15.70;100798.00;;;;10194086;28;20228;-81
2023/06/09 03:26:09;;;;;;;11.47;7.70;;;;;15.70;100805.00;;;;10171863;28;20299;-76
2023/06/09 03:31:13;;;;;;;12.53;8.53;;;;;15.70;100807.00;;;;10211075;28;20208;-76
2023/06/09 03:36:17;;;;;;;13.23;9.03;;;;;15.70;100803.00;;;;10186861;28;20603;-77
2023/06/09 03:41:19;;;;;;;16.47;8.60;;;;;15.60;100804.00;;;;10179900;28;20295;-78
2023/06/09 03:46:22;;;;;;;12.43;8.87;;;;;15.60;100803.00;;;;10172080;28;20378;-78
2023/06/09 03:51:26;;;;;;;18.00;9.17;;;;;15.60;100809.00;;;;10171125;28;21781;-77
2023/06/09 03:56:30;;;;;;;11.97;8.33;;;;;15.80;100800.00;;;;10175290;28;20547;-78
2023/06/09 04:01:33;;;;;;;13.83;8.30;;;;;15.90;100802.00;;;;10196660;28;20239;-77
2023/06/09 04:06:36;;;;;;;13.33;8.77;;;;;16.20;100802.00;;;;10172880;28;20281;-77
2023/06/09 04:11:39;;;;;;;14.73;8.93;;;;;16.20;100804.00;;;;10179376;28;20221;-80
2023/06/09 04:16:43;;;;;;;12.33;9.00;;;;;16.20;100812.00;;;;10164909;28;20426;-80
2023/06/09 04:21:48;;;;;;;15.80;9.17;;;;;16.30;100811.00;;;;10179766;28;20825;-76
2023/06/09 04:26:53;;;;;;;14.30;8.80;;;;;16.30;100823.00;;;;10188250;28;20208;-78
2023/06/09 04:31:58;;;;;;;10.73;8.80;;;;;16.40;100815.00;;;;10186344;28;20208;-75
2023/06/09 04:37:04;;;;;;;9.50;8.53;;;;;16.50;100823.00;;;;10207685;28;20788;-77
2023/06/09 04:42:07;;;;;;;17.80;10.00;;;;;16.70;100833.00;;;;10186698;28;20224;-81
2023/06/09 04:47:10;;;;;;;12.37;9.20;;;;;16.80;100829.00;;;;10170588;28;20217;-77
2023/06/09 04:52:17;;;;;;;13.17;8.57;;;;;16.90;100831.00;;;;10180073;28;20844;-76
2023/06/09 04:57:19;;;;;;;12.50;8.73;;;;;17.10;100830.00;;;;10167120;28;20655;-82
2023/06/09 05:02:22;;;;;;;18.80;9.80;;;;;17.40;100849.00;;;;10186783;28;20225;-77
2023/06/09 05:07:24;;;;;;;16.48;9.10;;;;;17.70;100835.00;;;;10183605;28;20237;-78
2023/06/09 05:12:26;;;;;;;13.82;9.30;;;;;18.00;100838.00;;;;10180919;28;20954;-75
2023/06/09 05:17:30;;;;;;;15.15;9.35;;;;;18.40;100837.00;;;;10162844;28;20233;-77
2023/06/09 05:22:33;;;;;;;14.43;10.05;;;;;18.70;100839.00;;;;10165063;28;20264;-76
2023/06/09 05:27:36;;;;;;;15.02;10.75;;;;;19.20;100845.00;;;;10176036;28;20225;-75
2023/06/09 05:32:38;;;;;;;16.48;10.63;;;;;19.50;100836.00;;;;10164055;28;21742;-75
2023/06/09 05:37:52;;;;;;;13.48;10.63;;;;;19.90;100844.00;;;;10180382;28;20785;-77
2023/06/09 05:42:58;;;;;;;16.17;10.32;;;;;20.30;100851.00;;;;10180938;28;20302;-77
2023/06/09 05:48:01;;;;;;;15.18;10.90;;;;;20.50;100846.00;;;;10164129;28;20237;-77
2023/06/09 05:53:03;;;;;;;17.90;11.93;;;;;20.80;100851.00;;;;10162637;28;20212;-78
2023/06/09 05:58:05;;;;;;;18.65;11.73;;;;;21.20;100850.00;;;;10158396;28;20914;-76
2023/06/09 06:03:10;;;;;;;14.93;12.05;;;;;21.60;100846.00;;;;10161170;28;20217;-76
2023/06/09 06:08:12;;;;;;;16.50;12.13;;;;;21.80;100852.00;;;;10148664;28;21901;-79
2023/06/09 06:13:15;;;;;;;17.77;11.30;;;;;22.10;100848.00;;;;10163416;28;20824;-77
2023/06/09 06:18:17;;;;;;;15.38;11.85;;;;;22.50;100854.00;;;;10163546;28;20730;-76
2023/06/09 06:23:19;;;;;;;13.57;12.18;;;;;22.60;100844.00;;;;10165149;28;21529;-77
2023/06/09 06:28:21;;;;;;;16.65;12.75;;;;;22.80;100849.00;;;;10167237;28;20247;-76
2023/06/09 06:33:23;;;;;;;17.73;12.70;;;;;23.10;100852.00;;;;10164374;28;20205;-79
2023/06/09 06:38:25;;;;;;;15.50;11.32;;;;;23.60;100861.00;;;;10161878;28;21330;-77
2023/06/09 06:43:27;;;;;;;15.68;12.25;;;;;23.90;100849.00;;;;10170091;28;20235;-77
2023/06/09 06:48:35;;;;;;;18.13;12.30;;;;;24.10;100846.00;;;;10163673;28;20209;-76
2023/06/09 06:53:37;;;;;;;13.35;11.95;;;;;24.40;100855.00;;;;10170185;28;20330;-81
2023/06/09 06:58:40;;;;;;;14.35;11.07;;;;;24.80;100848.00;;;;10155021;28;20389;-77
2023/06/09 07:03:42;;;;;;;13.18;10.63;;;;;25.20;100853.00;;;;10168253;28;20619;-77
2023/06/09 07:08:45;;;;;;;12.60;11.32;;;;;25.40;100855.00;;;;10165016;28;20245;-78
2023/06/09 07:13:47;;;;;;;14.27;11.05;;;;;25.80;100859.00;;;;10165410;28;20658;-77
2023/06/09 07:18:49;;;;;;;16.15;11.63;;;;;26.30;100854.00;;;;10175482;28;20233;-78
2023/06/09 07:23:51;;;;;;;13.77;10.35;;;;;26.90;100856.00;;;;10172816;28;21833;-77
2023/06/09 07:28:53;;;;;;;12.27;10.98;;;;;27.20;100859.00;;;;10160511;28;20725;-77
2023/06/09 07:33:56;;;;;;;12.35;10.80;;;;;27.30;100856.00;;;;10159951;28;20217;-78
2023/06/09 07:38:57;;;;;;;11.05;9.93;;;;;27.60;100859.00;;;;10164240;28;20236;-82
2023/06/09 07:43:59;;;;;;;13.13;10.15;;;;;28.00;100853.00;;;;10164932;28;20300;-76
2023/06/09 07:49:02;;;;;;;11.48;10.27;;;;;28.30;100855.00;;;;10165194;28;20729;-77
2023/06/09 07:54:05;;;;;;;12.27;9.57;;;;;28.50;100848.00;;;;10175476;28;20206;-80
2023/06/09 07:59:07;;;;;;;13.90;8.45;;;;;28.80;100854.00;;;;10172197;28;20229;-76
2023/06/09 08:04:10;;;;;;;10.40;8.52;;;;;29.40;100854.00;;;;10168791;28;20246;-77
2023/06/09 08:09:12;;;;;;;10.80;8.80;;;;;29.80;100855.00;;;;10169332;28;20828;-76
2023/06/09 08:14:16;;;;;;;9.95;8.32;;;;;29.80;100851.00;;;;10165490;28;20237;-78
2023/06/09 08:19:18;;;;;;;8.27;7.45;;;;;29.90;100851.00;;;;10170371;28;20290;-79
2023/06/09 08:24:20;;;;;;;8.25;7.38;;;;;30.30;100843.00;;;;10171420;28;20663;-78
2023/06/09 08:29:23;;;;;;;10.55;7.50;;;;;30.80;100838.00;;;;10172803;28;20304;-82
2023/06/09 08:34:25;;;;;;;8.32;7.18;;;;;30.90;100829.00;;;;10168115;28;20725;-77
2023/06/09 08:39:27;;;;;;;7.82;7.07;;;;;31.10;100838.00;;;;10182623;28;20221;-81
2023/06/09 08:44:32;;;;;;;9.25;6.85;;;;;31.40;100827.00;;;;10176234;28;21651;-78
2023/06/09 08:49:35;;;;;;;11.35;7.13;;;;;31.60;100819.00;;;;10183797;28;20221;-80
2023/06/09 08:54:38;;;;;;;7.15;6.55;;;;;32.10;100824.00;;;;10179745;28;20221;-78
2023/06/09 08:59:41;;;;;;;7.80;7.05;;;;;32.30;100817.00;;;;10166890;28;20225;-82
2023/06/09 09:04:43;;;;;;;7.25;6.35;;;;;32.50;100821.00;;;;10172962;28;20228;-77
2023/06/09 09:09:45;;;;;;;8.30;5.88;;;;;32.80;100811.00;;;;10167264;28;20213;-76
2023/06/09 09:14:47;;;;;;;7.20;6.50;;;;;33.10;100798.00;;;;10146341;28;20931;-77
2023/06/09 09:19:49;;;;;;;8.35;5.43;;;;;33.70;100804.00;;;;10134409;28;20465;-77
2023/06/09 09:24:51;;;;;;;6.30;5.60;;;;;34.10;100800.00;;;;10163709;28;20331;-78
2023/06/09 09:29:53;;;;;;;7.07;5.50;;;;;34.30;100804.00;;;;10167810;28;21232;-78
2023/06/09 09:34:56;;;;;;;5.88;5.28;;;;;34.30;100803.00;;;;10166413;28;20213;-78
2023/06/09 09:39:57;;;;;;;6.68;4.75;;;;;34.10;100799.00;;;;10159471;28;20229;-78
2023/06/09 09:45:02;;;;;;;5.25;4.75;;;;;34.20;100802.00;;;;10165830;28;21438;-79
2023/06/09 09:50:08;;;;;;;4.90;4.50;;;;;34.30;100797.00;;;;10169134;28;21021;-78
2023/06/09 09:55:13;;;;;;;6.57;4.40;;;;;34.40;100798.00;;;;10172212;28;20232;-81
2023/06/09 10:00:15;;;;;;;4.72;4.20;;;;;34.60;100790.00;;;;10178972;28;20256;-82
2023/06/09 10:05:19;;;;;;;6.90;4.57;;;;;34.70;100779.00;;;;10168592;28;20703;-77
2023/06/09 10:10:21;;;;;;;6.30;4.00;;;;;34.80;100781.00;;;;10167807;28;20219;-78
2023/06/09 10:15:24;;;;;;;3.95;3.60;;;;;34.80;100772.00;;;;10159583;28;20328;-77
2023/06/09 10:20:26;;;;;;;4.50;3.88;;;;;35.20;100763.00;;;;10160176;28;20391;-77
2023/06/09 10:25:30;;;;;;;4.05;3.72;;;;;35.30;100760.00;;;;10168237;28;20339;-77
2023/06/09 10:30:32;;;;;;;3.90;3.60;;;;;35.20;100768.00;;;;10162872;28;20216;-77
2023/06/09 10:35:38;;;;;;;4.30;3.47;;;;;35.30;100756.00;;;;10168867;28;20817;-78
2023/06/09 10:40:52;;;;;;;4.60;4.20;;;;;35.70;100759.00;;;;10163651;28;20236;-75
2023/06/09 10:45:57;;;;;;;4.25;3.85;;;;;35.80;100751.00;;;;10159841;28;20822;-77
2023/06/09 10:51:24;;;;;;;4.28;3.88;;;;;35.70;100752.00;;;;10161644;28;20773;-77
2023/06/09 10:56:36;;;;;;;3.75;3.45;;;;;36.00;100742.00;;;;10156281;28;21522;-76
2023/06/09 11:02:01;;;;;;;4.15;3.80;;;;;36.40;100742.00;;;;10160064;28;20243;-76
2023/06/09 11:07:19;;;;;;;4.43;3.80;;;;;36.10;100737.00;;;;10158732;28;20717;-76
2023/06/09 11:12:24;;;;;;;4.32;3.92;;;;;36.00;100730.00;;;;10164512;28;20233;-76
2023/06/09 11:17:33;;;;;;;5.85;4.25;;;;;36.30;100724.00;;;;10170576;28;20205;-76
2023/06/09 11:22:42;;;;;;;4.82;3.60;;;;;36.40;100726.00;;;;10176096;28;21816;-75
2023/06/09 11:27:47;;;;;;;3.95;3.38;;;;;36.40;100714.00;;;;10175061;28;20225;-76
2023/06/09 11:32:49;;;;;;;5.22;4.03;;;;;36.50;100707.00;;;;10169124;28;20522;-76
2023/06/09 11:37:53;;;;;;;5.50;3.80;;;;;36.50;100708.00;;;;10166692;28;20821;-76
2023/06/09 11:42:57;;;;;;;5.18;3.55;;;;;37.10;100704.00;;;;10162489;28;20304;-77
2023/06/09 11:48:00;;;;;;;4.13;3.83;;;;;37.30;100695.00;;;;10183805;28;20232;-76
2023/06/09 11:53:06;;;;;;;3.78;3.47;;;;;37.30;100698.00;;;;10192158;28;20215;-78
2023/06/09 11:58:09;;;;;;;5.07;3.90;;;;;37.20;100689.00;;;;10194963;28;20735;-80
2023/06/09 12:03:16;;;;;;;5.85;3.80;;;;;37.50;100690.00;;;;10197723;28;20209;-80
2023/06/09 12:08:19;;;;;;;4.63;3.88;;;;;37.90;100683.00;;;;10190513;28;20236;-79
2023/06/09 12:13:21;;;;;;;5.50;3.70;;;;;38.10;100683.00;;;;10197860;28;20295;-79
2023/06/09 12:18:23;;;;;;;4.50;4.10;;;;;37.70;100671.00;;;;10186518;28;20423;-79
2023/06/09 12:23:27;;;;;;;6.85;4.03;;;;;37.70;100670.00;;;;10186644;28;20575;-79
2023/06/09 12:28:30;;;;;;;3.63;3.25;;;;;37.50;100667.00;;;;10177709;28;20986;-75
2023/06/09 12:33:33;;;;;;;4.57;3.60;;;;;36.80;100675.00;;;;10178472;28;22401;-75
2023/06/09 12:38:44;;;;;;;6.05;4.13;;;;;36.20;100662.00;;;;10199882;28;20317;-80
2023/06/09 12:43:55;;;;;;;7.50;3.65;;;;;36.70;100658.00;;;;10192478;28;20670;-77
2023/06/09 12:49:05;;;;;;;4.65;4.00;;;;;37.10;100656.00;;;;10161947;28;20280;-77
2023/06/09 12:54:10;;;;;;;6.10;3.88;;;;;36.80;100655.00;;;;10159201;28;20296;-76
2023/06/09 12:59:13;;;;;;;4.35;3.92;;;;;36.90;100644.00;;;;10187056;28;20283;-81
2023/06/09 13:04:16;;;;;;;5.07;3.90;;;;;37.10;100652.00;;;;10195908;28;20340;-77
2023/06/09 13:09:18;;;;;;;5.18;3.67;;;;;36.40;100640.00;;;;10158665;28;20248;-76
2023/06/09 13:14:20;;;;;;;4.20;3.80;;;;;36.70;100648.00;;;;10169279;28;20679;-79
2023/06/09 13:19:25;;;;;;;4.28;3.65;;;;;36.80;100642.00;;;;10170519;28;20920;-77
2023/06/09 13:24:27;;;;;;;6.80;3.80;;;;;37.00;100645.00;;;;10167902;28;20300;-79
2023/06/09 13:29:29;;;;;;;6.25;3.72;;;;;37.10;100647.00;;;;10173742;28;20332;-78
2023/06/09 13:34:31;;;;;;;4.20;3.78;;;;;37.10;100646.00;;;;10169083;28;20211;-77
2023/06/09 13:39:33;;;;;;;4.10;3.67;;;;;37.00;100634.00;;;;10158357;28;20272;-76
2023/06/09 13:44:35;;;;;;;5.43;4.07;;;;;34.90;100653.00;;;;10158722;28;21218;-75
2023/06/09 13:49:38;;;;;;;4.32;3.80;;;;;34.30;100621.00;;;;10164687;28;20226;-75
2023/06/09 13:54:40;;;;;;;4.95;3.90;;;;;35.60;100625.00;;;;10165498;28;20933;-77
2023/06/09 13:59:42;;;;;;;4.82;3.97;;;;;35.20;100638.00;;;;10171945;28;20209;-77
2023/06/09 14:04:44;;;;;;;10.32;4.03;;;;;34.10;100629.00;;;;10186520;28;20209;-80
2023/06/09 14:09:47;;;;;;;5.05;3.58;;;;;35.50;100621.00;;;;10190913;28;20278;-78
2023/06/09 14:14:49;;;;;;;4.00;3.47;;;;;36.20;100607.00;;;;10198047;28;20239;-79
2023/06/09 14:19:53;;;;;;;6.68;3.40;;;;;36.00;100618.00;;;;10192560;28;20205;-79
2023/06/09 14:24:55;;;;;;;7.00;3.95;;;;;35.40;100611.00;;;;10184875;28;20223;-79
2023/06/09 14:29:57;;;;;;;4.93;3.80;;;;;35.70;100601.00;;;;10188442;28;20225;-79
2023/06/09 14:34:59;;;;;;;4.75;3.80;;;;;36.20;100603.00;;;;10182591;28;20225;-78
2023/06/09 14:40:02;;;;;;;3.80;3.40;;;;;35.90;100601.00;;;;10180442;28;20201;-78
2023/06/09 14:45:05;;;;;;;5.57;3.80;;;;;35.80;100603.00;;;;10174932;28;20647;-79
2023/06/09 14:50:08;;;;;;;3.90;3.42;;;;;35.80;100587.00;;;;10164757;28;20375;-78
2023/06/09 14:55:10;;;;;;;4.97;3.67;;;;;37.20;100583.00;;;;10184628;28;20284;-77
2023/06/09 15:00:13;;;;;;;5.38;3.78;;;;;38.00;100597.00;;;;10185828;28;20591;-78
2023/06/09 15:05:18;;;;;;;7.10;3.25;;;;;37.60;100576.00;;;;10190986;28;20232;-78
2023/06/09 15:10:27;;;;;;;6.22;3.63;;;;;39.50;100565.00;;;;10190817;28;21486;-78
2023/06/09 15:15:29;;;;;;;4.00;3.70;;;;;40.20;100568.00;;;;10170156;28;20944;-77
2023/06/09 15:20:33;;;;;;;4.65;3.13;;;;;40.60;100567.00;;;;10177575;28;20213;-78
2023/06/09 15:25:38;;;;;;;4.47;3.10;;;;;40.30;100562.00;;;;10204797;28;20213;-78
2023/06/09 15:30:45;;;;;;;3.55;3.22;;;;;39.90;100572.00;;;;10188518;28;20284;-78
2023/06/09 15:35:50;;;;;;;3.40;3.10;;;;;36.60;100571.00;;;;10180547;28;20212;-79
2023/06/09 15:40:53;;;;;;;3.75;3.45;;;;;35.30;100564.00;;;;10181173;28;21456;-78
2023/06/09 15:45:58;;;;;;;5.82;3.15;;;;;36.10;100560.00;;;;10172679;28;20241;-77
2023/06/09 15:51:04;;;;;;;6.50;3.58;;;;;34.50;100558.00;;;;10172840;28;20221;-77
2023/06/09 15:56:07;;;;;;;8.35;3.47;;;;;33.30;100549.00;;;;10175706;28;20943;-76
2023/06/09 16:01:09;;;;;;;5.00;3.58;;;;;32.70;100547.00;;;;10175859;28;20217;-76
2023/06/09 16:06:11;;;;;;;5.05;3.00;;;;;32.20;100540.00;;;;10159444;28;20279;-77
2023/06/09 16:11:13;;;;;;;4.00;3.50;;;;;31.90;100542.00;;;;10169398;28;20552;-79
2023/06/09 16:16:15;;;;;;;6.60;4.28;;;;;31.80;100539.00;;;;10166304;28;20749;-77
2023/06/09 16:21:18;;;;;;;3.55;3.03;;;;;31.80;100533.00;;;;10168499;28;20717;-76
2023/06/09 16:26:20;;;;;;;7.13;3.40;;;;;31.50;100534.00;;;;10163119;28;20212;-77
2023/06/09 16:31:22;;;;;;;5.53;3.20;;;;;31.30;100534.00;;;;10165340;28;20217;-75
2023/06/09 16:36:24;;;;;;;4.93;3.45;;;;;31.30;100536.00;;;;10167167;28;20214;-77
2023/06/09 16:41:26;;;;;;;5.60;3.60;;;;;31.20;100532.00;;;;10164136;28;20213;-77
2023/06/09 16:46:29;;;;;;;6.28;3.17;;;;;31.10;100534.00;;;;10164611;28;21108;-77
2023/06/09 16:51:31;;;;;;;3.67;3.28;;;;;31.00;100539.00;;;;10165433;28;20288;-79
2023/06/09 16:56:34;;;;;;;4.78;3.60;;;;;30.90;100542.00;;;;10193634;28;20578;-81
2023/06/09 17:01:36;;;;;;;8.15;3.45;;;;;30.70;100539.00;;;;10194872;28;20225;-76
2023/06/09 17:06:38;;;;;;;4.00;3.55;;;;;30.50;100536.00;;;;10164967;28;20411;-77
2023/06/09 17:11:41;;;;;;;5.03;3.47;;;;;30.40;100538.00;;;;10170315;28;20236;-77
2023/06/09 17:16:43;;;;;;;4.05;3.70;;;;;30.20;100555.00;;;;10164250;28;20274;-78
2023/06/09 17:21:45;;;;;;;5.97;3.80;;;;;30.10;100546.00;;;;10165933;28;20730;-78
2023/06/09 17:26:48;;;;;;;4.38;3.55;;;;;30.00;100548.00;;;;10180119;28;20218;-79
2023/06/09 17:31:50;;;;;;;5.63;3.55;;;;;30.00;100557.00;;;;10195220;28;20931;-76
2023/06/09 17:36:52;;;;;;;9.63;4.10;;;;;29.90;100552.00;;;;10159587;28;20206;-77
2023/06/09 17:41:54;;;;;;;4.57;3.25;;;;;29.70;100559.00;;;;10164266;28;20212;-76
2023/06/09 17:46:56;;;;;;;8.02;3.50;;;;;29.60;100558.00;;;;10164267;28;20221;-76
2023/06/09 17:51:59;;;;;;;5.68;3.40;;;;;29.40;100565.00;;;;10163779;28;20209;-77
2023/06/09 17:57:06;;;;;;;4.10;3.72;;;;;29.30;100563.00;;;;10169940;28;20205;-76
2023/06/09 18:02:09;;;;;;;4.78;3.63;;;;;29.20;100566.00;;;;10165221;28;21296;-75
2023/06/09 18:07:11;;;;;;;6.10;3.60;;;;;29.00;100570.00;;;;10164267;28;20249;-78
2023/06/09 18:12:13;;;;;;;8.57;3.80;;;;;28.90;100574.00;;;;10170900;28;20300;-77
2023/06/09 18:17:15;;;;;;;7.40;3.50;;;;;28.80;100571.00;;;;10163720;28;20245;-80
2023/06/09 18:22:17;;;;;;;5.32;3.83;;;;;28.60;100574.00;;;;10191266;28;20220;-78
2023/06/09 18:27:19;;;;;;;5.30;4.03;;;;;28.50;100586.00;;;;10174847;28;20260;-78
2023/06/09 18:32:22;;;;;;;5.50;3.60;;;;;28.40;100581.00;;;;10172673;28;20591;-78
2023/06/09 18:37:24;;;;;;;4.90;4.20;;;;;28.20;100586.00;;;;10174279;28;20332;-78
2023/06/09 18:42:26;;;;;;;5.18;3.42;;;;;28.10;100594.00;;;;10171140;28;20329;-77
2023/06/09 18:47:28;;;;;;;6.45;4.10;;;;;27.90;100591.00;;;;10166076;28;20692;-76
2023/06/09 18:52:31;;;;;;;6.32;3.50;;;;;27.80;100591.00;;;;10158953;28;20220;-77
2023/06/09 18:57:43;;;;;;;4.25;3.53;;;;;27.60;100602.00;;;;10161061;28;20231;-76
2023/06/09 19:02:46;;;;;;;7.85;3.60;;;;;27.50;100592.00;;;;10155530;28;20225;-76
2023/06/09 19:07:49;;;;;;;9.25;4.50;;;;;27.30;100598.00;;;;10155335;28;20228;-76
2023/06/09 19:12:51;;;;;;;5.18;3.47;;;;;27.10;100592.00;;;;10161797;28;20214;-79
2023/06/09 19:17:54;;;;;;;4.50;3.70;;;;;27.00;100603.00;;;;10167746;28;21148;-78
2023/06/09 19:22:56;;;;;;;3.90;3.50;;;;;26.80;100612.00;;;;10164553;28;20629;-77
2023/06/09 19:27:58;;;;;;;5.65;4.10;;;;;26.60;100605.00;;;;10161110;28;20458;-78
2023/06/09 19:33:01;;;;;;;3.58;3.28;;;;;26.30;100609.00;;;;10162204;28;20327;-75
2023/06/09 19:38:04;;;;;;;5.95;3.88;;;;;26.10;100623.00;;;;10156791;28;20206;-75
2023/06/09 19:43:06;;;;;;;5.03;4.13;;;;;25.80;100621.00;;;;10162340;28;20209;-77
2023/06/09 19:48:08;;;;;;;6.22;4.25;;;;;25.60;100626.00;;;;10164168;28;21094;-75
2023/06/09 19:53:10;;;;;;;6.03;4.20;;;;;25.40;100632.00;;;;10166705;28;20221;-75
2023/06/09 19:58:12;;;;;;;5.70;4.03;;;;;25.20;100639.00;;;;10171174;28;21352;-78
2023/06/09 20:03:15;;;;;;;5.47;3.60;;;;;25.00;100647.00;;;;10178607;28;20937;-78
2023/06/09 20:08:17;;;;;;;9.23;4.78;;;;;24.80;100653.00;;;;10151154;28;20992;-77
2023/06/09 20:13:19;;;;;;;5.70;3.88;;;;;24.60;100654.00;;;;10165990;28;20217;-78
2023/06/09 20:18:21;;;;;;;5.95;4.43;;;;;24.40;100662.00;;;;10166326;28;20843;-76
2023/06/09 20:23:30;;;;;;;7.40;4.53;;;;;24.30;100665.00;;;;10164359;28;20197;-76
2023/06/09 20:28:32;;;;;;;10.98;4.53;;;;;24.10;100668.00;;;;10146568;28;20307;-77
2023/06/09 20:33:42;;;;;;;7.55;4.78;;;;;23.90;100678.00;;;;10169262;28;20259;-79
2023/06/09 20:38:44;;;;;;;7.38;4.30;;;;;23.80;100671.00;;;;10171452;28;21407;-79
2023/06/09 20:43:49;;;;;;;6.63;4.30;;;;;23.70;100680.00;;;;10164024;28;20210;-75
2023/06/09 20:48:51;;;;;;;5.05;4.03;;;;;23.60;100679.00;;;;10166120;28;21006;-78
2023/06/09 20:53:55;;;;;;;8.10;5.13;;;;;23.40;100680.00;;;;10165011;28;20434;-76
2023/06/09 20:58:57;;;;;;;5.70;4.57;;;;;23.30;100681.00;;;;10190622;28;20229;-78
2023/06/09 21:04:00;;;;;;;11.35;4.90;;;;;23.30;100689.00;;;;10170059;28;20955;-78
2023/06/09 21:09:06;;;;;;;5.15;4.65;;;;;23.20;100685.00;;;;10160876;28;20237;-76
2023/06/09 21:14:08;;;;;;;6.55;5.13;;;;;23.10;100688.00;;;;10160211;28;20213;-77
2023/06/09 21:19:10;;;;;;;5.78;4.47;;;;;23.00;100696.00;;;;10184762;28;20232;-76
2023/06/09 21:24:12;;;;;;;8.02;4.80;;;;;22.90;100690.00;;;;10160791;28;20202;-76
2023/06/09 21:29:15;;;;;;;6.40;5.25;;;;;22.90;100692.00;;;;10163866;28;20213;-75
2023/06/09 21:34:17;;;;;;;5.65;5.15;;;;;22.80;100697.00;;;;10158947;28;21738;-76
2023/06/09 21:39:19;;;;;;;6.40;4.82;;;;;22.70;100696.00;;;;10165025;28;20228;-76
2023/06/09 21:44:21;;;;;;;7.32;5.00;;;;;22.60;100707.00;;;;10161479;28;20209;-77
2023/06/09 21:49:23;;;;;;;6.93;5.40;;;;;22.50;100708.00;;;;10162762;28;21296;-76
2023/06/09 21:54:25;;;;;;;6.22;4.78;;;;;22.40;100707.00;;;;10159502;28;20258;-76
2023/06/09 21:59:27;;;;;;;9.57;5.15;;;;;22.30;100708.00;;;;10159465;28;20287;-74
2023/06/09 22:04:29;;;;;;;6.00;5.43;;;;;22.20;100704.00;;;;10159784;28;20213;-75
2023/06/09 22:09:31;;;;;;;6.65;5.55;;;;;22.10;100708.00;;;;10161688;28;20216;-76
2023/06/09 22:14:33;;;;;;;7.13;5.80;;;;;22.10;100712.00;;;;10163546;28;20387;-75
2023/06/09 22:19:36;;;;;;;8.98;5.80;;;;;22.00;100723.00;;;;10160336;28;20823;-75
2023/06/09 22:24:38;;;;;;;5.97;5.45;;;;;21.90;100723.00;;;;10158998;28;20209;-76
2023/06/09 22:29:40;;;;;;;6.13;5.53;;;;;21.90;100728.00;;;;10174230;28;20316;-75
2023/06/09 22:34:43;;;;;;;6.97;6.13;;;;;21.80;100733.00;;;;10173575;28;20209;-76
2023/06/09 22:39:48;;;;;;;7.43;6.40;;;;;21.70;100725.00;;;;10173167;28;20323;-75
2023/06/09 22:44:51;;;;;;;6.22;5.60;;;;;21.70;100734.00;;;;10173508;28;20307;-74
2023/06/09 22:50:10;;;;;;;9.32;6.22;;;;;21.60;100719.00;;;;10157276;28;20302;-75
2023/06/09 22:55:14;;;;;;;8.68;5.85;;;;;21.50;100732.00;;;;10175531;28;20205;-76
2023/06/09 23:00:21;;;;;;;6.85;6.25;;;;;21.40;100732.00;;;;10165667;28;20841;-76
2023/06/09 23:05:27;;;;;;;7.50;6.10;;;;;21.30;100722.00;;;;10161457;28;20323;-77
2023/06/09 23:10:30;;;;;;;7.47;5.93;;;;;21.20;100736.00;;;;10161575;28;20566;-77
2023/06/09 23:15:32;;;;;;;7.05;6.43;;;;;21.10;100729.00;;;;10159699;28;21216;-78
2023/06/09 23:20:34;;;;;;;8.77;6.40;;;;;21.10;100740.00;;;;10190903;28;20235;-75
2023/06/09 23:25:37;;;;;;;7.75;6.03;;;;;21.10;100736.00;;;;10168983;28;20889;-75
2023/06/09 23:30:39;;;;;;;7.93;6.18;;;;;21.10;100742.00;;;;10165062;28;20306;-75
2023/06/09 23:35:41;;;;;;;10.07;7.15;;;;;21.00;100740.00;;;;10165234;28;20232;-78
2023/06/09 23:40:44;;;;;;;7.38;6.68;;;;;21.00;100748.00;;;;10165703;28;20633;-77
2023/06/09 23:45:46;;;;;;;7.20;6.50;;;;;20.90;100760.00;;;;10165315;28;20241;-76
2023/06/09 23:50:48;;;;;;;13.63;6.65;;;;;20.80;100763.00;;;;10170448;28;20834;-79
2023/06/09 23:55:53;;;;;;;9.50;7.30;;;;;20.70;100761.00;;;;10166952;28;20324;-76
